Time;durP1;ratioP1;P1;durP2;ratioP2;P2;SDS_P1;SDS_P2;PMS_P1;PMS_P2;Temp;Humidity;BMP_temperature;BMP_pressure;BME280_temperature;BME280_humidity;BME280_pressure;Samples;Min_cycle;Max_cycle;Signal;HPM_P1;HPM_P2
2023/08/14 00:00:09;;;;;;;5.35;2.47;;;;;;;;;;5040187;28;20226;-28
2023/08/14 00:02:36;;;;;;;3.97;2.53;;;;;;;;;;5054228;28;20283;-31
2023/08/14 00:05:05;;;;;;;3.63;1.92;;;;;;;;;;5053472;28;20206;-33
2023/08/14 00:07:32;;;;;;;3.08;1.60;;;;;;;;;;5045417;28;20212;-32
2023/08/14 00:09:59;;;;;;;2.20;2.03;;;;;;;;;;5053519;28;20231;-29
2023/08/14 00:12:26;;;;;;;4.03;1.83;;;;;;;;;;5050595;28;20206;-31
2023/08/14 00:14:53;;;;;;;2.67;2.10;;;;;;;;;;5037389;28;20213;-30
2023/08/14 00:17:20;;;;;;;4.70;2.40;;;;;;;;;;5052400;28;20216;-31
2023/08/14 00:19:47;;;;;;;2.30;2.20;;;;;;;;;;5052438;28;20244;-30
2023/08/14 00:22:16;;;;;;;2.95;1.80;;;;;;;;;;5047816;28;20210;-30
2023/08/14 00:24:43;;;;;;;5.90;2.40;;;;;;;;;;5053702;28;20201;-29
2023/08/14 00:27:10;;;;;;;4.60;2.00;;;;;;;;;;5052821;28;20244;-31
2023/08/14 00:29:38;;;;;;;2.43;2.17;;;;;;;;;;5045137;28;20236;-30
2023/08/14 00:32:05;;;;;;;3.85;1.90;;;;;;;;;;5052245;28;20201;-31
2023/08/14 00:34:32;;;;;;;2.75;2.13;;;;;;;;;;5053290;28;20212;-30
2023/08/14 00:36:59;;;;;;;1.93;1.77;;;;;;;;;;5045229;28;20198;-30
2023/08/14 00:39:28;;;;;;;2.25;2.00;;;;;;;;;;5051815;28;20218;-27
2023/08/14 00:41:55;;;;;;;6.15;2.10;;;;;;;;;;5052392;28;20198;-30
2023/08/14 00:44:22;;;;;;;3.22;1.85;;;;;;;;;;5045050;28;20212;-29
2023/08/14 00:46:49;;;;;;;3.05;2.10;;;;;;;;;;5046585;28;20218;-30
2023/08/14 00:49:16;;;;;;;4.67;2.13;;;;;;;;;;5052917;28;20222;-31
2023/08/14 00:51:44;;;;;;;2.25;1.80;;;;;;;;;;5048029;28;20194;-33
2023/08/14 00:54:11;;;;;;;3.20;2.25;;;;;;;;;;5050171;28;20209;-30
2023/08/14 00:56:39;;;;;;;1.90;1.80;;;;;;;;;;5051805;28;20208;-30
2023/08/14 00:59:08;;;;;;;8.32;2.33;;;;;;;;;;5048957;28;20230;-32
2023/08/14 01:01:35;;;;;;;5.25;2.15;;;;;;;;;;5036810;28;20271;-31
2023/08/14 01:04:02;;;;;;;5.35;2.40;;;;;;;;;;5050981;28;20210;-31
2023/08/14 01:06:29;;;;;;;3.15;1.98;;;;;;;;;;5050838;28;20719;-31
2023/08/14 01:08:56;;;;;;;3.00;2.30;;;;;;;;;;5046002;28;20226;-34
2023/08/14 01:11:27;;;;;;;5.60;2.35;;;;;;;;;;5049524;28;20212;-28
2023/08/14 01:14:01;;;;;;;5.67;2.30;;;;;;;;;;5041004;28;20218;-31
2023/08/14 01:16:30;;;;;;;2.00;1.90;;;;;;;;;;5043809;28;20280;-29
2023/08/14 01:18:59;;;;;;;2.20;2.00;;;;;;;;;;5052377;28;20230;-31
2023/08/14 01:21:41;;;;;;;3.15;2.17;;;;;;;;;;5044844;28;20210;-31
2023/08/14 01:24:12;;;;;;;2.80;2.60;;;;;;;;;;5048228;28;20206;-30
2023/08/14 01:26:41;;;;;;;2.40;1.50;;;;;;;;;;5051839;28;20244;-31
2023/08/14 01:29:08;;;;;;;3.33;2.13;;;;;;;;;;5039929;28;20226;-30
2023/08/14 01:31:35;;;;;;;6.90;2.40;;;;;;;;;;5052193;28;20206;-31
2023/08/14 01:34:02;;;;;;;5.80;2.00;;;;;;;;;;5052305;28;20198;-31
2023/08/14 01:36:36;;;;;;;2.33;1.75;;;;;;;;;;5048091;28;20324;-30
2023/08/14 01:39:07;;;;;;;2.15;2.05;;;;;;;;;;5049110;28;20228;-29
2023/08/14 01:41:37;;;;;;;3.63;2.10;;;;;;;;;;5052420;28;20271;-30
2023/08/14 01:44:10;;;;;;;6.83;2.43;;;;;;;;;;5048044;28;20202;-29
2023/08/14 01:46:38;;;;;;;3.77;2.07;;;;;;;;;;5051994;28;20218;-30
2023/08/14 01:49:05;;;;;;;14.30;3.50;;;;;;;;;;5053250;28;20232;-27
2023/08/14 01:51:33;;;;;;;4.50;4.05;;;;;;;;;;5054107;28;20563;-29
2023/08/14 01:54:01;;;;;;;5.20;4.00;;;;;;;;;;5038663;28;20210;-29
2023/08/14 01:56:28;;;;;;;6.88;4.60;;;;;;;;;;5045730;28;20287;-30
2023/08/14 01:58:55;;;;;;;6.60;3.60;;;;;;;;;;5045635;28;20236;-32
2023/08/14 02:01:23;;;;;;;6.18;4.18;;;;;;;;;;5037485;28;20210;-30
2023/08/14 02:03:50;;;;;;;5.70;3.40;;;;;;;;;;5049652;28;20296;-28
2023/08/14 02:06:20;;;;;;;9.63;3.42;;;;;;;;;;5046583;28;20312;-30
2023/08/14 02:08:47;;;;;;;5.87;3.47;;;;;;;;;;5050160;28;20586;-33
2023/08/14 02:11:14;;;;;;;3.30;3.00;;;;;;;;;;5054887;28;20570;-30
2023/08/14 02:13:41;;;;;;;3.97;3.10;;;;;;;;;;5051740;28;20205;-29
2023/08/14 02:16:08;;;;;;;6.07;3.20;;;;;;;;;;5054981;28;20198;-32
2023/08/14 02:18:36;;;;;;;4.43;2.55;;;;;;;;;;5054710;28;20209;-32
2023/08/14 02:21:04;;;;;;;6.50;2.90;;;;;;;;;;5054466;28;20237;-28
2023/08/14 02:23:31;;;;;;;8.80;2.47;;;;;;;;;;5046506;28;20241;-29
2023/08/14 02:25:58;;;;;;;5.80;2.63;;;;;;;;;;5053442;28;20208;-28
2023/08/14 02:28:25;;;;;;;4.45;2.20;;;;;;;;;;5046858;28;20212;-30
2023/08/14 02:30:52;;;;;;;4.07;2.50;;;;;;;;;;5048749;28;20205;-32
2023/08/14 02:33:19;;;;;;;2.50;2.30;;;;;;;;;;5053438;28;20202;-29
2023/08/14 02:35:48;;;;;;;2.83;2.37;;;;;;;;;;5051001;28;20206;-31
2023/08/14 02:38:15;;;;;;;3.60;2.30;;;;;;;;;;5046844;28;20198;-30
2023/08/14 02:40:42;;;;;;;5.40;3.00;;;;;;;;;;5049915;28;20232;-33
2023/08/14 02:43:09;;;;;;;5.70;2.90;;;;;;;;;;5043267;28;20207;-29
2023/08/14 02:45:36;;;;;;;7.63;2.53;;;;;;;;;;5044443;28;20670;-30
2023/08/14 02:48:03;;;;;;;4.07;2.40;;;;;;;;;;5050340;28;20226;-30
2023/08/14 02:50:30;;;;;;;5.43;3.03;;;;;;;;;;5051085;28;20233;-31
2023/08/14 02:52:59;;;;;;;2.97;2.67;;;;;;;;;;5046776;28;20209;-29
2023/08/14 02:55:27;;;;;;;3.87;2.40;;;;;;;;;;5049760;28;20197;-31
2023/08/14 02:57:54;;;;;;;3.50;2.40;;;;;;;;;;5044776;28;20203;-32
2023/08/14 03:00:21;;;;;;;4.72;2.38;;;;;;;;;;5043594;28;20226;-30
2023/08/14 03:02:49;;;;;;;3.67;2.20;;;;;;;;;;5050170;28;20194;-29
2023/08/14 03:05:16;;;;;;;4.85;2.65;;;;;;;;;;5050719;28;20205;-29
2023/08/14 03:07:43;;;;;;;5.15;2.70;;;;;;;;;;5039001;28;20217;-28
2023/08/14 03:10:11;;;;;;;3.50;2.30;;;;;;;;;;5049864;28;20248;-29
2023/08/14 03:12:38;;;;;;;3.93;2.73;;;;;;;;;;5044630;28;20202;-29
2023/08/14 03:15:06;;;;;;;2.57;2.30;;;;;;;;;;5035428;28;20210;-32
2023/08/14 03:17:33;;;;;;;4.83;2.50;;;;;;;;;;5049521;28;20226;-29
2023/08/14 03:20:00;;;;;;;3.57;2.40;;;;;;;;;;5047910;28;20237;-32
2023/08/14 03:22:27;;;;;;;4.00;2.47;;;;;;;;;;5037519;28;20202;-32
2023/08/14 03:24:54;;;;;;;3.10;2.50;;;;;;;;;;5045082;28;20205;-32
2023/08/14 03:27:23;;;;;;;3.30;2.35;;;;;;;;;;5046722;28;20229;-27
2023/08/14 03:29:50;;;;;;;3.23;2.60;;;;;;;;;;5037020;28;20236;-32
2023/08/14 03:32:17;;;;;;;8.33;2.40;;;;;;;;;;5049265;28;20652;-30
2023/08/14 03:34:44;;;;;;;4.10;2.13;;;;;;;;;;5048701;28;20236;-31
2023/08/14 03:37:11;;;;;;;2.33;2.00;;;;;;;;;;5041685;28;20329;-31
2023/08/14 03:39:38;;;;;;;3.27;2.20;;;;;;;;;;5049852;28;20213;-30
2023/08/14 03:42:06;;;;;;;2.90;2.60;;;;;;;;;;5050022;28;20205;-29
2023/08/14 03:44:34;;;;;;;2.70;2.40;;;;;;;;;;5042002;28;20205;-33
2023/08/14 03:47:01;;;;;;;6.63;2.50;;;;;;;;;;5049325;28;20221;-29
2023/08/14 03:49:28;;;;;;;3.73;2.53;;;;;;;;;;5049985;28;20308;-31
2023/08/14 03:51:55;;;;;;;3.47;2.50;;;;;;;;;;5047183;28;20211;-34
2023/08/14 03:54:23;;;;;;;3.30;2.70;;;;;;;;;;5043379;28;20221;-29
2023/08/14 03:56:50;;;;;;;4.23;2.60;;;;;;;;;;5049299;28;20197;-30
2023/08/14 03:59:17;;;;;;;5.33;2.40;;;;;;;;;;5043536;28;20638;-29
2023/08/14 04:01:45;;;;;;;3.13;2.47;;;;;;;;;;5047649;28;20194;-32
2023/08/14 04:04:13;;;;;;;5.93;2.30;;;;;;;;;;5049315;28;20233;-32
2023/08/14 04:06:40;;;;;;;3.03;2.60;;;;;;;;;;5038668;28;20212;-26
2023/08/14 04:09:09;;;;;;;3.77;2.60;;;;;;;;;;5049019;28;20247;-30
2023/08/14 04:11:36;;;;;;;4.53;2.70;;;;;;;;;;5049430;28;20228;-28
2023/08/14 04:14:03;;;;;;;2.67;2.47;;;;;;;;;;5035332;28;20206;-30
2023/08/14 04:16:43;;;;;;;4.63;2.70;;;;;;;;;;5042229;28;20204;-30
2023/08/14 04:19:13;;;;;;;6.70;2.80;;;;;;;;;;5049373;28;20259;-29
2023/08/14 05:38:46;;;;;;;2.50;2.30;;;;;;;;;;5027302;28;20255;-31
2023/08/14 05:41:13;;;;;;;3.60;2.90;;;;;;;;;;5006962;28;20542;-32
2023/08/14 05:43:42;;;;;;;3.63;2.53;;;;;;;;;;5007874;28;20207;-32
2023/08/14 05:46:10;;;;;;;3.23;2.40;;;;;;;;;;5004062;28;20294;-32
2023/08/14 05:48:38;;;;;;;6.43;2.40;;;;;;;;;;5001440;28;20231;-34
2023/08/14 05:51:20;;;;;;;5.83;3.20;;;;;;;;;;4995429;28;20212;-35
2023/08/14 05:53:50;;;;;;;3.93;2.90;;;;;;;;;;5008249;28;20217;-34
2023/08/14 05:56:28;;;;;;;4.93;3.00;;;;;;;;;;5007313;28;20238;-35
2023/08/14 05:59:10;;;;;;;2.72;2.53;;;;;;;;;;5010897;28;20229;-36
2023/08/14 06:01:45;;;;;;;3.03;2.80;;;;;;;;;;5002628;28;20203;-31
2023/08/14 06:04:21;;;;;;;4.77;3.23;;;;;;;;;;5012167;28;20202;-32
2023/08/14 06:06:51;;;;;;;4.80;3.10;;;;;;;;;;5015668;28;20229;-32
2023/08/14 06:37:38;;;;;;;3.72;2.83;;;;;;;;;;5013302;28;20210;-32
2023/08/14 06:43:38;;;;;;;;;;;;;;;;;;;;;
2023/08/14 07:07:58;;;;;;;3.33;3.03;;;;;;;;;;5073852;28;20242;-30
2023/08/14 07:16:46;;;;;;;5.22;2.90;;;;;;;;;;5057989;28;20218;-32
2023/08/14 07:19:47;;;;;;;3.80;3.00;;;;;;;;;;5054680;28;20224;-32
2023/08/14 07:22:31;;;;;;;3.22;2.92;;;;;;;;;;5048484;28;20211;-33
2023/08/14 07:25:34;;;;;;;5.28;3.05;;;;;;;;;;5042917;28;20216;-34
2023/08/14 08:15:46;;;;;;;3.72;1.88;;;;;;;;;;5069121;28;20320;-32
2023/08/14 09:51:49;;;;;;;2.00;1.90;;;;;;;;;;5073739;28;20349;-36
2023/08/14 10:29:03;;;;;;;2.72;2.53;;;;;;;;;;5034668;28;20230;-34
2023/08/14 10:32:07;;;;;;;3.92;2.70;;;;;;;;;;5042316;28;20222;-35
2023/08/14 11:03:20;;;;;;;;;;;;;;;;;;;;;
2023/08/14 12:45:05;;;;;;;4.15;2.47;;;;;;;;;;4863071;29;20340;-30
2023/08/14 12:53:37;;;;;;;3.40;2.75;;;;;;;;;;4849047;29;20216;-32
2023/08/14 13:02:24;;;;;;;3.22;2.42;;;;;;;;;;4942187;29;20221;-32
2023/08/14 13:05:14;;;;;;;7.68;3.03;;;;;;;;;;4961353;28;20231;-29
2023/08/14 13:08:31;;;;;;;;;;;;;;;;;;;;;
2023/08/14 13:24:04;;;;;;;;;;;;;;;;;;;;;
2023/08/14 13:32:46;;;;;;;7.00;3.10;;;;;;;;;;4955470;28;20271;-42
2023/08/14 13:35:27;;;;;;;5.10;3.15;;;;;;;;;;4990759;28;20245;-40
2023/08/14 13:38:17;;;;;;;3.60;2.80;;;;;;;;;;4998234;28;20215;-46
2023/08/14 13:40:53;;;;;;;4.43;2.38;;;;;;;;;;4982655;28;20290;-41
2023/08/14 13:43:43;;;;;;;6.80;3.00;;;;;;;;;;4995260;28;20245;-39
2023/08/14 13:46:20;;;;;;;4.15;3.08;;;;;;;;;;5002793;28;20301;-41
2023/08/14 13:49:06;;;;;;;6.18;2.90;;;;;;;;;;4994936;28;20233;-44
2023/08/14 13:51:40;;;;;;;5.03;3.03;;;;;;;;;;4988027;28;20217;-45
2023/08/14 13:54:20;;;;;;;2.92;2.60;;;;;;;;;;4987404;28;20219;-45
2023/08/14 13:56:57;;;;;;;4.80;2.92;;;;;;;;;;4994833;28;20302;-42
2023/08/14 13:59:42;;;;;;;3.30;3.00;;;;;;;;;;4996111;28;20222;-45
2023/08/14 14:02:15;;;;;;;4.10;2.70;;;;;;;;;;5003766;28;20202;-39
2023/08/14 14:04:49;;;;;;;4.10;3.00;;;;;;;;;;4991363;28;20204;-42
2023/08/14 14:07:36;;;;;;;4.32;3.33;;;;;;;;;;4990855;28;20209;-39
2023/08/14 14:10:15;;;;;;;3.03;2.53;;;;;;;;;;4996574;28;20278;-43
2023/08/14 14:12:51;;;;;;;4.50;2.92;;;;;;;;;;4995225;28;20203;-36
2023/08/14 14:15:39;;;;;;;3.17;2.88;;;;;;;;;;4995283;28;20219;-41
2023/08/14 14:18:10;;;;;;;3.70;2.92;;;;;;;;;;5005455;28;20966;-40
2023/08/14 14:20:41;;;;;;;2.65;2.45;;;;;;;;;;4991479;28;20323;-41
2023/08/14 14:23:17;;;;;;;2.60;2.40;;;;;;;;;;4991148;28;20200;-40
2023/08/14 14:25:53;;;;;;;4.90;3.65;;;;;;;;;;5000199;28;20253;-38
2023/08/14 14:28:34;;;;;;;3.97;3.03;;;;;;;;;;4995923;28;20246;-40
2023/08/14 14:31:09;;;;;;;5.55;4.20;;;;;;;;;;4995884;28;20215;-38
2023/08/14 14:33:52;;;;;;;3.88;3.58;;;;;;;;;;5003703;28;20309;-41
2023/08/14 14:36:26;;;;;;;4.55;3.42;;;;;;;;;;4986954;28;20208;-41
2023/08/14 14:39:01;;;;;;;5.18;2.58;;;;;;;;;;4989415;28;20230;-44
2023/08/14 14:41:37;;;;;;;7.75;2.90;;;;;;;;;;4995197;28;20210;-42
2023/08/14 14:44:11;;;;;;;4.90;2.83;;;;;;;;;;4998212;28;20211;-42
2023/08/14 14:46:53;;;;;;;4.38;2.90;;;;;;;;;;5007396;28;20273;-40
2023/08/14 14:55:42;;;;;;;5.75;3.70;;;;;;;;;;4994771;28;20262;-42
2023/08/14 15:01:00;;;;;;;5.22;3.25;;;;;;;;;;5061997;22;20229;-45
2023/08/14 15:03:49;;;;;;;4.45;3.50;;;;;;;;;;5052990;28;20198;-39
2023/08/14 15:06:28;;;;;;;4.38;3.17;;;;;;;;;;5033628;28;20210;-42
2023/08/14 15:09:05;;;;;;;3.95;3.20;;;;;;;;;;5047279;28;20589;-40
2023/08/14 15:11:42;;;;;;;3.38;2.70;;;;;;;;;;5035162;28;20198;-40
2023/08/14 15:14:18;;;;;;;4.00;3.33;;;;;;;;;;5039141;28;20202;-37
2023/08/14 15:16:55;;;;;;;5.65;3.50;;;;;;;;;;5024923;28;20195;-40
2023/08/14 15:37:45;;;;;;;5.55;3.67;;;;;;;;;;5070621;28;20275;-31
2023/08/14 15:40:21;;;;;;;7.78;2.92;;;;;;;;;;5047974;28;20241;-31
2023/08/14 15:42:55;;;;;;;3.30;3.05;;;;;;;;;;5050240;28;20292;-31
2023/08/14 15:45:31;;;;;;;4.05;2.83;;;;;;;;;;5054537;28;20263;-30
2023/08/14 15:48:12;;;;;;;2.92;2.65;;;;;;;;;;5051377;28;20228;-30
2023/08/14 16:01:56;;;;;;;3.17;2.97;;;;;;;;;;5061621;28;20220;-31
2023/08/14 16:04:45;;;;;;;4.30;3.15;;;;;;;;;;5072153;28;20212;-35
2023/08/14 16:07:20;;;;;;;3.35;3.00;;;;;;;;;;5066421;28;20706;-32
2023/08/14 16:09:57;;;;;;;3.80;3.10;;;;;;;;;;5055065;28;20225;-33
2023/08/14 16:12:36;;;;;;;3.65;3.00;;;;;;;;;;5046883;28;20213;-30
2023/08/14 16:15:29;;;;;;;5.15;3.00;;;;;;;;;;5050874;28;20424;-33
2023/08/14 16:36:51;;;;;;;3.33;3.03;;;;;;;;;;5058536;28;20209;-30
2023/08/14 16:39:58;;;;;;;4.22;3.10;;;;;;;;;;5045248;28;20235;-32
2023/08/14 16:48:56;;;;;;;3.35;3.05;;;;;;;;;;5010259;28;20206;-32
2023/08/14 16:52:04;;;;;;;3.90;3.28;;;;;;;;;;5018489;28;20923;-32
2023/08/14 16:54:59;;;;;;;3.50;2.80;;;;;;;;;;5043521;28;20228;-30
2023/08/14 16:57:36;;;;;;;4.00;3.00;;;;;;;;;;5046558;28;20216;-31
2023/08/14 17:00:15;;;;;;;3.63;2.75;;;;;;;;;;5044786;28;20233;-32
2023/08/14 17:02:56;;;;;;;3.25;2.92;;;;;;;;;;5042499;28;20285;-34
2023/08/14 17:05:29;;;;;;;5.50;3.10;;;;;;;;;;5053623;28;20214;-32
2023/08/14 17:08:14;;;;;;;3.60;3.30;;;;;;;;;;5042389;28;20214;-32
2023/08/14 17:11:03;;;;;;;4.75;3.38;;;;;;;;;;5048653;28;20271;-31
2023/08/14 17:13:37;;;;;;;3.97;2.88;;;;;;;;;;5046421;28;20533;-32
2023/08/14 17:16:06;;;;;;;4.72;3.28;;;;;;;;;;5048328;28;20385;-33
2023/08/14 17:18:41;;;;;;;3.38;3.08;;;;;;;;;;5057497;22;20209;-31
2023/08/14 17:21:36;;;;;;;4.05;3.00;;;;;;;;;;5055101;28;20643;-34
2023/08/14 17:24:23;;;;;;;3.83;3.10;;;;;;;;;;5043053;28;20202;-33
2023/08/14 17:29:46;;;;;;;3.40;3.15;;;;;;;;;;5034035;28;20229;-33
2023/08/14 17:32:30;;;;;;;3.75;3.10;;;;;;;;;;5019556;28;20751;-31
2023/08/14 17:35:12;;;;;;;4.10;3.10;;;;;;;;;;5028687;28;20199;-33
2023/08/14 17:37:48;;;;;;;4.38;3.40;;;;;;;;;;5032014;28;20203;-31
2023/08/14 17:40:32;;;;;;;4.13;3.17;;;;;;;;;;5021266;28;20309;-31
2023/08/14 17:43:23;;;;;;;3.65;3.35;;;;;;;;;;5015636;28;20265;-33
2023/08/14 17:46:02;;;;;;;4.75;3.33;;;;;;;;;;5020003;28;20210;-31
2023/08/14 17:48:37;;;;;;;5.60;3.38;;;;;;;;;;5017295;28;20218;-32
2023/08/14 17:51:21;;;;;;;3.10;2.88;;;;;;;;;;5028751;28;20227;-31
2023/08/14 17:53:56;;;;;;;3.78;3.28;;;;;;;;;;5017013;28;20425;-30
2023/08/14 17:56:35;;;;;;;4.07;3.00;;;;;;;;;;5032842;28;20210;-29
2023/08/14 17:59:23;;;;;;;4.93;3.42;;;;;;;;;;5023447;28;20249;-33
2023/08/14 18:02:15;;;;;;;4.38;3.38;;;;;;;;;;5028271;28;20296;-31
2023/08/14 18:04:50;;;;;;;3.42;3.22;;;;;;;;;;5027656;28;20289;-34
2023/08/14 18:07:22;;;;;;;3.58;3.25;;;;;;;;;;5028972;28;20221;-31
2023/08/14 18:09:59;;;;;;;5.50;2.97;;;;;;;;;;5032914;28;20241;-33
2023/08/14 18:12:37;;;;;;;5.63;3.40;;;;;;;;;;5023642;28;20206;-29
2023/08/14 18:15:26;;;;;;;5.70;3.55;;;;;;;;;;5014836;28;20237;-33
2023/08/14 18:18:10;;;;;;;3.90;3.50;;;;;;;;;;5026076;28;20223;-32
2023/08/14 18:20:50;;;;;;;4.22;3.72;;;;;;;;;;5018782;28;20252;-30
2023/08/14 18:23:53;;;;;;;5.80;3.63;;;;;;;;;;5025051;28;20634;-31
2023/08/14 18:26:51;;;;;;;3.20;2.97;;;;;;;;;;5017855;28;20235;-32
2023/08/14 18:29:49;;;;;;;3.95;3.15;;;;;;;;;;5025526;28;20232;-31
2023/08/14 18:35:44;;;;;;;3.72;3.30;;;;;;;;;;5026331;28;20209;-33
2023/08/14 18:38:37;;;;;;;3.47;3.17;;;;;;;;;;5026899;28;20206;-30
2023/08/14 18:41:26;;;;;;;4.10;3.45;;;;;;;;;;5012071;28;20232;-30
2023/08/14 18:44:01;;;;;;;5.72;3.25;;;;;;;;;;5020313;28;20261;-32
2023/08/14 18:52:56;;;;;;;3.60;3.08;;;;;;;;;;5013110;28;20217;-31
2023/08/14 18:55:50;;;;;;;3.83;3.35;;;;;;;;;;5031773;28;20206;-32
2023/08/14 19:01:52;;;;;;;3.75;3.35;;;;;;;;;;4952318;29;20220;-31
2023/08/14 19:04:51;;;;;;;4.38;3.22;;;;;;;;;;4945267;29;20220;-32
2023/08/14 19:07:38;;;;;;;5.25;3.28;;;;;;;;;;5003187;28;20209;-33
2023/08/14 19:20:03;;;;;;;3.85;3.45;;;;;;;;;;4912631;29;20243;-31
2023/08/14 19:22:57;;;;;;;5.28;3.70;;;;;;;;;;4943020;29;20209;-33
2023/08/14 19:25:55;;;;;;;4.38;3.60;;;;;;;;;;4944903;29;20213;-31
2023/08/14 19:35:08;;;;;;;;;;;;;;;;;;;;;
2023/08/14 19:47:12;;;;;;;4.40;4.00;;;;;;;;;;4865107;29;20304;-33
2023/08/14 19:50:02;;;;;;;5.70;3.85;;;;;;;;;;4901940;29;20237;-33
2023/08/14 19:52:59;;;;;;;;;;;;;;;;;;;;;
2023/08/14 19:55:56;;;;;;;5.53;3.50;;;;;;;;;;4992916;28;20233;-32
2023/08/14 20:01:49;;;;;;;4.85;3.40;;;;;;;;;;4941170;28;20218;-31
2023/08/14 20:07:28;;;;;;;5.50;3.90;;;;;;;;;;5028236;28;20278;-32
2023/08/14 20:16:44;;;;;;;3.75;3.45;;;;;;;;;;5011684;28;20204;-33
2023/08/14 20:19:28;;;;;;;5.28;3.65;;;;;;;;;;5031921;28;20264;-30
2023/08/14 20:22:25;;;;;;;4.30;3.65;;;;;;;;;;5028435;28;20212;-33
2023/08/14 20:25:07;;;;;;;4.95;3.50;;;;;;;;;;5029237;28;20204;-30
2023/08/14 20:28:02;;;;;;;3.63;3.33;;;;;;;;;;5020179;28;20211;-32
2023/08/14 20:30:55;;;;;;;4.68;3.70;;;;;;;;;;5013912;28;20251;-29
2023/08/14 20:33:37;;;;;;;5.78;3.80;;;;;;;;;;5033682;28;20220;-30
2023/08/14 20:36:40;;;;;;;3.92;3.58;;;;;;;;;;5023519;28;20300;-30
2023/08/14 20:39:44;;;;;;;5.20;3.72;;;;;;;;;;5030377;28;20236;-32
2023/08/14 20:42:37;;;;;;;3.70;3.40;;;;;;;;;;5032282;28;20205;-33
2023/08/14 20:48:06;;;;;;;3.28;2.97;;;;;;;;;;5028516;28;20205;-32
2023/08/14 20:50:55;;;;;;;3.72;3.42;;;;;;;;;;5031395;28;20307;-31
2023/08/14 20:53:54;;;;;;;4.10;3.70;;;;;;;;;;5032165;28;20208;-29
2023/08/14 20:56:51;;;;;;;3.30;3.00;;;;;;;;;;5031842;28;20667;-33
2023/08/14 20:59:28;;;;;;;5.82;3.55;;;;;;;;;;5021497;28;20251;-32
2023/08/14 21:02:13;;;;;;;5.75;3.30;;;;;;;;;;5026564;28;20283;-33
2023/08/14 21:04:49;;;;;;;3.42;3.20;;;;;;;;;;5034101;28;20202;-32
2023/08/14 21:07:25;;;;;;;7.55;3.60;;;;;;;;;;5026687;28;20205;-32
2023/08/14 21:10:02;;;;;;;11.02;4.15;;;;;;;;;;5012894;28;20286;-32
2023/08/14 21:12:40;;;;;;;4.65;3.05;;;;;;;;;;5025570;28;20213;-34
2023/08/14 21:15:24;;;;;;;4.40;3.47;;;;;;;;;;5032442;28;20287;-32
2023/08/14 21:18:10;;;;;;;4.20;3.72;;;;;;;;;;5032288;28;20209;-34
2023/08/14 21:20:46;;;;;;;8.00;4.10;;;;;;;;;;5019078;28;20280;-34
2023/08/14 21:23:30;;;;;;;6.53;3.75;;;;;;;;;;5026217;28;20215;-32
2023/08/14 21:31:53;;;;;;;6.72;3.58;;;;;;;;;;5453614;22;20293;-32
2023/08/14 21:34:35;;;;;;;5.22;3.92;;;;;;;;;;5073443;28;20504;-33
2023/08/14 21:37:29;;;;;;;4.32;3.47;;;;;;;;;;5069070;28;20250;-34
2023/08/14 21:40:04;;;;;;;7.07;3.67;;;;;;;;;;5057193;28;20231;-33
2023/08/14 21:42:42;;;;;;;7.20;3.53;;;;;;;;;;5050777;28;20203;-30
2023/08/14 21:45:21;;;;;;;4.20;3.80;;;;;;;;;;5042448;28;20204;-36
2023/08/14 21:48:12;;;;;;;8.00;3.75;;;;;;;;;;5052709;28;20198;-32
2023/08/14 21:51:14;;;;;;;3.58;3.28;;;;;;;;;;5052138;28;20225;-34
2023/08/14 21:54:03;;;;;;;4.40;4.00;;;;;;;;;;5047180;28;20218;-31
2023/08/14 21:56:46;;;;;;;5.22;3.65;;;;;;;;;;5050948;28;20204;-32
2023/08/14 21:59:33;;;;;;;3.38;2.97;;;;;;;;;;5048803;28;20232;-34
2023/08/14 22:05:13;;;;;;;3.55;3.13;;;;;;;;;;5035269;28;20212;-34
2023/08/14 22:10:43;;;;;;;4.22;3.83;;;;;;;;;;5049266;28;20318;-32
2023/08/14 22:13:39;;;;;;;3.80;3.50;;;;;;;;;;5033126;28;20216;-37
2023/08/14 22:19:40;;;;;;;8.15;3.80;;;;;;;;;;5051641;28;20210;-34
2023/08/14 22:22:30;;;;;;;6.57;4.50;;;;;;;;;;5051389;28;20212;-34
2023/08/14 22:25:29;;;;;;;4.20;3.80;;;;;;;;;;5051556;28;20201;-32
2023/08/14 22:28:33;;;;;;;5.05;3.72;;;;;;;;;;5045139;28;20212;-36
2023/08/14 22:31:36;;;;;;;;;;;;;;;;;;;;;
2023/08/14 22:34:40;;;;;;;4.72;3.72;;;;;;;;;;5049384;28;20212;-34
2023/08/14 22:37:35;;;;;;;4.30;3.90;;;;;;;;;;5043594;28;20220;-33
2023/08/14 22:40:38;;;;;;;5.55;3.63;;;;;;;;;;5044638;28;20281;-32
2023/08/14 22:43:34;;;;;;;4.07;3.33;;;;;;;;;;5010510;28;20299;-32
2023/08/14 22:46:47;;;;;;;3.72;3.42;;;;;;;;;;5047979;28;20208;-34
2023/08/14 22:49:33;;;;;;;6.95;3.75;;;;;;;;;;5050464;28;20229;-34
2023/08/14 22:52:20;;;;;;;6.63;3.22;;;;;;;;;;5046646;28;20255;-31
2023/08/14 22:55:16;;;;;;;6.13;3.78;;;;;;;;;;5046771;28;20218;-31
2023/08/14 22:57:58;;;;;;;7.57;3.40;;;;;;;;;;5043999;28;20303;-34
2023/08/14 23:00:53;;;;;;;4.63;3.83;;;;;;;;;;5050826;28;20218;-32
2023/08/14 23:03:45;;;;;;;3.50;3.20;;;;;;;;;;5051771;28;20271;-36
2023/08/14 23:15:50;;;;;;;5.40;3.67;;;;;;;;;;5052734;28;20297;-36
2023/08/14 23:18:35;;;;;;;12.35;3.88;;;;;;;;;;5053577;28;20206;-33
